Flight Track Log - Related Links

Times and Time Zones

All times are in EDT time to prevent confusion due to time zone crossing. See the JIA2442 flight status page for this flight to view local times or setup timezone preferences in your user account.

Time Position Orientation Groundspeed Altitude Reporting Facility
EDT Latitude Longitude Course Direction KTS MPH feet Rate Location/Type
Wed 07:18:42 AM 32.3039 -86.4275 47° Northeast 160 184 1,500  Level Atlanta Center
Wed 07:19:42 AM 32.3278 -86.4797 298° West 174 200 3,600 1,950 Climbing Atlanta Center
Wed 07:20:42 AM 32.3703 -86.4439 35° Northeast 128 147 5,400 2,300 Climbing Atlanta Center
Wed 07:21:00 AM 32.4693 -86.1345 55° Northeast  Level FlightAware Approximate
Wed 07:21:42 AM 32.4178 -86.3664 54° Northeast 179 206 8,200  Level Atlanta Center
Wed 07:22:00 AM 32.5220 -86.0468 55° Northeast  Level FlightAware Approximate
Wed 07:22:42 AM 32.4672 -86.2817 55° Northeast 248 285 10,500  Level Atlanta Center
Wed 07:23:00 AM 32.5788 -85.9631 47° Northeast  Level FlightAware Approximate
Wed 07:23:42 AM 32.5231 -86.2017 50° Northeast 280 322 12,800  Level Atlanta Center
Wed 07:24:42 AM 32.5722 -86.1192 55° Northeast 298 343 15,300 2,050 Climbing Atlanta Center
Wed 07:25:42 AM 32.6383 -86.0442 44° Northeast 316 364 16,900 2,000 Climbing Atlanta Center
Wed 07:26:42 AM 32.7103 -85.9767 38° Northeast 321 369 19,300 1,800 Climbing Atlanta Center
Wed 07:27:42 AM 32.7822 -85.9092 38° Northeast 326 375 20,500 1,000 Climbing Atlanta Center
Wed 07:28:42 AM 32.8606 -85.8342 39° Northeast 336 387 21,300 1,050 Climbing Atlanta Center
Wed 07:29:42 AM 32.9289 -85.7439 48° Northeast 348 400 22,600 1,300 Climbing Atlanta Center
Wed 07:30:42 AM 32.9864 -85.6411 56° Northeast 364 419 23,900 1,300 Climbing Atlanta Center
Wed 07:31:42 AM 33.0400 -85.5381 58° Northeast 369 425 25,200 1,150 Climbing Atlanta Center
Wed 07:32:42 AM 33.1019 -85.4250 57° Northeast 369 425 26,200 800 Climbing Atlanta Center
Wed 07:33:42 AM 33.1614 -85.3167 57° Northeast 376 433 26,800 600 Climbing Atlanta Center
Wed 07:34:42 AM 33.2211 -85.2033 58° Northeast 390 449 27,400 700 Climbing Atlanta Center
Wed 07:35:42 AM 33.2825 -85.0925 56° Northeast 396 456 28,200 800 Climbing Atlanta Center
Wed 07:36:42 AM 33.3439 -84.9764 58° Northeast 402 463 29,000 400 Climbing Atlanta Center
Wed 07:37:42 AM 33.4011 -84.8650 58° Northeast 402 463 29,000  Level Atlanta Center
Wed 07:38:42 AM 33.4625 -84.7508 57° Northeast 408 470 29,000  Level Atlanta Center
Wed 07:39:42 AM 33.5172 -84.6467 58° Northeast 408 470 29,000  Level Atlanta Center
Wed 07:40:42 AM 33.5761 -84.5300 59° Northeast 408 470 29,000  Level Atlanta Center
Wed 07:41:42 AM 33.6392 -84.3981 60° Northeast 408 470 29,000  Level Atlanta Center
Wed 07:42:42 AM 33.6731 -84.2758 72° East 413 475 29,000  Level Atlanta Center
Wed 07:43:42 AM 33.7086 -84.1361 73° East 423 487 29,000  Level Atlanta Center
Wed 07:44:42 AM 33.7483 -84.0014 70° East 428 493 29,000  Level Atlanta Center
Wed 07:45:42 AM 33.7858 -83.8664 71° East 425 489 29,000  Level Atlanta Center
Wed 07:46:42 AM 33.8253 -83.7286 71° East 425 489 29,000  Level Atlanta Center
Wed 07:47:42 AM 33.8622 -83.5936 72° East 425 489 29,000  Level Atlanta Center
Wed 07:48:42 AM 33.9014 -83.4531 71° East 432 497 29,000  Level Atlanta Center
Wed 07:49:42 AM 33.9383 -83.3153 72° East 432 497 29,000  Level Atlanta Center
Wed 07:50:42 AM 33.9936 -83.1844 63° Northeast 426 490 29,000  Level Atlanta Center
Wed 07:51:42 AM 34.0553 -83.0458 62° Northeast 426 490 29,000  Level Atlanta Center
Wed 07:52:42 AM 34.1125 -82.9147 62° Northeast 432 497 29,000  Level Atlanta Center
Wed 07:53:42 AM 34.1739 -82.7858 60° Northeast 437 503 29,000 -450 Level Atlanta Center
Wed 07:54:42 AM 34.2331 -82.6544 61° Northeast 443 510 28,100 -1,250 Descending Atlanta Center
Wed 07:55:42 AM 34.2942 -82.5278 60° Northeast 451 519 26,500 -1,600 Descending Atlanta Center
Wed 07:56:42 AM 34.3572 -82.3881 61° Northeast 466 536 24,900 -1,800 Descending Atlanta Center
Wed 07:57:42 AM 34.4158 -82.2586 61° Northeast 452 520 22,900 -2,250 Descending Atlanta Center
Wed 07:58:42 AM 34.4703 -82.1364 62° Northeast 427 491 20,400 -2,500 Descending Atlanta Center
Wed 07:59:42 AM 34.5206 -82.0219 62° Northeast 401 461 17,900 -2,400 Descending Atlanta Center
Wed 08:00:42 AM 34.5669 -81.9122 63° Northeast 377 434 15,600 -2,200 Descending Atlanta Center
Wed 08:01:42 AM 34.6150 -81.8050 61° Northeast 360 414 13,500 -1,831 Descending Atlanta Center
Wed 08:02:40 AM 34.6631 -81.6978 61° Northeast 354 407 12,000 -750 Descending Atlanta Center
Wed 08:03:42 AM 34.7111 -81.5928 61° Northeast 342 394 12,000  Level Atlanta Center
Wed 08:04:42 AM 34.7636 -81.5028 55° Northeast 330 380 12,000  Level Atlanta Center
Wed 08:05:42 AM 34.8244 -81.4250 46° Northeast 320 368 12,000 -98 Level Atlanta Center
Wed 08:06:45 AM 34.8956 -81.3367 46° Northeast 328 377 11,800 -726 Descending Atlanta Center
Wed 08:07:46 AM 34.9564 -81.2561 47° Northeast 325 374 10,500 -1,179 Descending Atlanta Center
Wed 08:08:42 AM 35.0050 -81.1911 48° Northeast 320 368 9,500 -776 Descending Atlanta Center
Wed 08:09:42 AM 35.0617 -81.1156 47° Northeast 313 360 9,000 -250 Descending Atlanta Center
Wed 08:10:42 AM 35.1294 -81.0650 31° Northeast 301 346 9,000 -558 Level Atlanta Center
Wed 08:11:51 AM 35.2339 -81.0739 356° North 287 330 7,800 -1,246 Descending Atlanta Center
Wed 08:12:52 AM 35.3092 -81.0814 355° North 279 321 6,300 -885 Descending Atlanta Center
Wed 08:13:53 AM 35.3844 -81.0864 357° North 264 304 6,000 -609 Descending Atlanta Center
Wed 08:15:00 AM 35.4681 -81.0936 356° North 260 299 5,000 -465 Descending Atlanta Center
Wed 08:16:02 AM 35.5308 -81.0989 356° North 218 251 5,000  Level Atlanta Center
Wed 08:16:57 AM 35.5828 -81.0969 North 209 241 5,000  Level Atlanta Center
Wed 08:18:04 AM 35.5978 -81.0275 75° East 211 243 5,000  Level Atlanta Center
Wed 08:19:00 AM 35.5597 -81.0008 150° Southeast 182 209 5,000  Level Atlanta Center
Wed 08:20:07 AM 35.5011 -80.9981 178° South 182 209 5,000  Level Atlanta Center
Wed 08:21:02 AM 35.4550 -80.9919 174° South 184 212 5,000 -466 Level Atlanta Center
Wed 08:22:03 AM 35.4028 -80.9864 175° South 186 214 4,100 -927 Descending Atlanta Center
Wed 08:23:05 AM 35.3464 -80.9808 175° South 190 219 3,100 -837 Descending Atlanta Center
Wed 08:24:12 AM 35.3025 -80.9772 176° South 137 158 2,300 -750 Descending Atlanta Center
Wed 08:25:13 AM 35.2647 -80.9736 176° South 131 151 1,500 -787 Descending Atlanta Center

Login

Don't have an account? Register now (free) for customized features, flight alerts, and more!